Time;durP1;ratioP1;P1;durP2;ratioP2;P2;SDS_P1;SDS_P2;PMS_P1;PMS_P2;Temp;Humidity;BMP_temperature;BMP_pressure;BME280_temperature;BME280_humidity;BME280_pressure;Samples;Min_cycle;Max_cycle;Signal;HPM_P1;HPM_P2
2022/05/17 00:00:37;;;;;;;21.00;8.52;;;;;;;;;;5036036;28;20046;-75
2022/05/17 00:03:03;;;;;;;18.42;8.68;;;;;;;;;;5036045;28;20119;-74
2022/05/17 00:05:30;;;;;;;21.88;9.15;;;;;;;;;;5035604;28;20491;-75
2022/05/17 00:07:56;;;;;;;17.73;9.10;;;;;;;;;;5018059;28;20060;-74
2022/05/17 00:10:23;;;;;;;18.83;9.63;;;;;;;;;;5035874;28;20709;-75
2022/05/17 00:12:52;;;;;;;20.02;10.00;;;;;;;;;;5035766;28;20491;-75
2022/05/17 00:15:19;;;;;;;19.05;9.57;;;;;;;;;;5036122;28;20041;-74
2022/05/17 00:17:45;;;;;;;16.98;9.43;;;;;;;;;;5035606;28;20407;-74
2022/05/17 00:20:12;;;;;;;18.00;10.45;;;;;;;;;;5035557;28;20046;-75
2022/05/17 00:22:38;;;;;;;17.55;9.68;;;;;;;;;;5035681;28;20107;-75
2022/05/17 00:25:05;;;;;;;17.92;10.18;;;;;;;;;;5035510;28;20045;-75
2022/05/17 00:27:31;;;;;;;20.73;10.25;;;;;;;;;;5035586;28;20048;-74
2022/05/17 00:29:57;;;;;;;17.55;9.98;;;;;;;;;;5035673;28;20053;-74
2022/05/17 00:32:23;;;;;;;19.83;10.80;;;;;;;;;;5035612;28;20082;-75
2022/05/17 00:34:49;;;;;;;17.38;10.10;;;;;;;;;;5035672;28;20046;-74
2022/05/17 00:37:16;;;;;;;18.52;10.82;;;;;;;;;;5035916;28;20054;-75
2022/05/17 00:39:42;;;;;;;19.15;10.38;;;;;;;;;;5035719;28;20041;-76
2022/05/17 00:42:08;;;;;;;19.10;10.75;;;;;;;;;;5035754;28;20502;-76
2022/05/17 00:44:43;;;;;;;20.63;10.55;;;;;;;;;;5017583;28;20049;-74
2022/05/17 00:47:14;;;;;;;20.73;10.82;;;;;;;;;;5036120;28;20043;-74
2022/05/17 00:49:43;;;;;;;20.63;10.63;;;;;;;;;;5035733;28;20049;-74
2022/05/17 00:52:14;;;;;;;23.20;11.43;;;;;;;;;;5035397;28;20167;-75
2022/05/17 00:54:42;;;;;;;19.63;10.65;;;;;;;;;;5035433;28;20041;-75
2022/05/17 00:57:08;;;;;;;20.80;11.00;;;;;;;;;;5035354;28;20095;-75
2022/05/17 00:59:34;;;;;;;21.00;11.13;;;;;;;;;;5034816;28;20435;-74
2022/05/17 01:02:00;;;;;;;18.83;11.23;;;;;;;;;;5034191;28;20060;-74
2022/05/17 01:04:27;;;;;;;17.70;11.02;;;;;;;;;;5035517;28;20049;-75
2022/05/17 01:06:56;;;;;;;19.75;10.98;;;;;;;;;;5017903;28;20068;-74
2022/05/17 01:09:23;;;;;;;21.10;11.60;;;;;;;;;;5035341;28;20095;-74
2022/05/17 01:11:49;;;;;;;23.90;12.13;;;;;;;;;;5035326;28;20045;-74
2022/05/17 01:17:01;;;;;;;22.15;11.73;;;;;;;;;;5035365;28;20054;-74
2022/05/17 01:19:27;;;;;;;19.60;11.40;;;;;;;;;;5035536;28;20045;-75
2022/05/17 01:21:53;;;;;;;23.45;12.77;;;;;;;;;;5018409;28;20107;-74
2022/05/17 01:24:19;;;;;;;20.88;12.68;;;;;;;;;;5035153;28;20046;-73
2022/05/17 01:26:49;;;;;;;19.02;12.30;;;;;;;;;;5035257;28;20078;-74
2022/05/17 01:29:15;;;;;;;25.52;13.25;;;;;;;;;;5035453;28;20064;-74
2022/05/17 01:31:41;;;;;;;20.23;12.95;;;;;;;;;;5035301;28;20408;-73
2022/05/17 01:34:10;;;;;;;23.42;12.95;;;;;;;;;;5035134;28;20088;-74
2022/05/17 01:36:37;;;;;;;20.05;13.02;;;;;;;;;;5035096;28;20053;-75
2022/05/17 01:39:04;;;;;;;22.13;12.07;;;;;;;;;;5034723;28;20411;-74
2022/05/17 01:41:30;;;;;;;19.77;11.13;;;;;;;;;;5035622;28;20042;-74
2022/05/17 01:43:56;;;;;;;21.70;12.35;;;;;;;;;;5035097;28;20049;-74
2022/05/17 01:46:23;;;;;;;17.80;12.02;;;;;;;;;;5035529;28;20136;-74
2022/05/17 01:48:49;;;;;;;20.40;12.10;;;;;;;;;;5034997;28;20105;-74
2022/05/17 01:51:15;;;;;;;20.75;11.73;;;;;;;;;;5035067;28;20614;-75
2022/05/17 01:53:42;;;;;;;21.60;11.93;;;;;;;;;;5035022;28;20506;-74
2022/05/17 01:56:09;;;;;;;20.13;11.15;;;;;;;;;;5016875;28;20041;-74
2022/05/17 01:58:35;;;;;;;21.02;11.90;;;;;;;;;;5034695;28;20549;-74
2022/05/17 02:01:01;;;;;;;18.08;10.98;;;;;;;;;;5034651;28;20048;-75
2022/05/17 02:03:27;;;;;;;19.42;10.90;;;;;;;;;;5033560;28;20045;-74
2022/05/17 02:05:54;;;;;;;23.95;11.98;;;;;;;;;;5034550;28;20049;-74
2022/05/17 02:08:20;;;;;;;23.58;11.93;;;;;;;;;;5034638;28;20056;-75
2022/05/17 02:10:46;;;;;;;20.77;10.70;;;;;;;;;;5035126;28;20124;-74
2022/05/17 02:13:12;;;;;;;20.55;10.50;;;;;;;;;;5020308;28;20046;-74
2022/05/17 02:15:38;;;;;;;23.52;10.45;;;;;;;;;;5005442;28;20053;-74
2022/05/17 02:18:04;;;;;;;20.00;10.43;;;;;;;;;;5039197;28;20056;-75
2022/05/17 02:20:31;;;;;;;23.58;10.50;;;;;;;;;;5039174;28;20554;-74
2022/05/17 02:23:00;;;;;;;21.08;10.88;;;;;;;;;;5039041;28;20412;-73
2022/05/17 02:25:26;;;;;;;24.00;11.52;;;;;;;;;;5039552;28;20051;-75
2022/05/17 02:27:52;;;;;;;20.20;9.95;;;;;;;;;;5038898;28;20042;-74
2022/05/17 02:30:18;;;;;;;22.40;10.88;;;;;;;;;;5039134;28;20060;-74
2022/05/17 02:32:44;;;;;;;22.80;10.32;;;;;;;;;;5039350;28;20052;-74
2022/05/17 02:35:13;;;;;;;17.65;9.15;;;;;;;;;;5038955;28;20046;-74
2022/05/17 02:37:39;;;;;;;20.73;10.63;;;;;;;;;;5039411;28;20045;-74
2022/05/17 02:40:05;;;;;;;21.55;11.30;;;;;;;;;;5039150;28;20041;-74
2022/05/17 02:42:31;;;;;;;20.33;9.70;;;;;;;;;;5020782;28;20049;-73
2022/05/17 02:44:57;;;;;;;21.08;9.85;;;;;;;;;;5020767;28;20049;-74
2022/05/17 02:47:23;;;;;;;23.85;10.52;;;;;;;;;;5020395;28;20053;-74
2022/05/17 02:49:49;;;;;;;20.95;10.70;;;;;;;;;;5038384;28;20057;-74
2022/05/17 02:52:15;;;;;;;22.67;10.57;;;;;;;;;;5037868;28;20046;-73
2022/05/17 02:54:41;;;;;;;21.45;10.25;;;;;;;;;;5020689;28;20056;-74
2022/05/17 02:57:08;;;;;;;23.98;10.35;;;;;;;;;;5037991;28;20510;-73
2022/05/17 02:59:35;;;;;;;21.65;10.00;;;;;;;;;;5037848;28;20041;-74
2022/05/17 03:02:02;;;;;;;21.63;9.90;;;;;;;;;;5037996;28;20087;-75
2022/05/17 03:04:28;;;;;;;24.42;10.75;;;;;;;;;;5038215;28;20057;-74
2022/05/17 03:06:55;;;;;;;19.40;9.80;;;;;;;;;;5038510;28;20053;-74
2022/05/17 03:09:21;;;;;;;20.88;10.07;;;;;;;;;;5037780;28;20414;-75
2022/05/17 03:11:47;;;;;;;22.08;10.80;;;;;;;;;;5037245;28;20053;-74
2022/05/17 03:14:14;;;;;;;21.17;9.95;;;;;;;;;;5036765;28;20426;-74
2022/05/17 03:16:41;;;;;;;21.00;10.75;;;;;;;;;;5018837;28;20041;-74
2022/05/17 03:19:07;;;;;;;21.92;10.23;;;;;;;;;;5036407;28;20040;-72
2022/05/17 03:21:34;;;;;;;21.60;10.30;;;;;;;;;;5036274;28;20049;-74
2022/05/17 03:24:00;;;;;;;21.05;10.20;;;;;;;;;;5035093;28;20084;-74
2022/05/17 03:26:26;;;;;;;19.98;10.05;;;;;;;;;;5035859;28;20096;-75
2022/05/17 03:28:52;;;;;;;22.90;10.07;;;;;;;;;;5035889;28;20151;-74
2022/05/17 03:31:18;;;;;;;25.17;10.35;;;;;;;;;;5018272;28;20419;-74
2022/05/17 03:33:44;;;;;;;21.75;9.90;;;;;;;;;;5035413;28;20038;-75
2022/05/17 03:36:10;;;;;;;22.05;10.02;;;;;;;;;;5034936;28;20038;-75
2022/05/17 03:38:37;;;;;;;22.05;10.63;;;;;;;;;;5034467;28;20052;-73
2022/05/17 03:41:04;;;;;;;20.38;9.98;;;;;;;;;;5018234;28;20041;-73
2022/05/17 03:43:30;;;;;;;20.27;9.73;;;;;;;;;;5035707;28;20488;-73
2022/05/17 03:45:57;;;;;;;27.40;10.40;;;;;;;;;;5035524;28;20111;-76
2022/05/17 03:48:24;;;;;;;25.80;10.90;;;;;;;;;;5036046;28;20125;-75
2022/05/17 03:50:50;;;;;;;22.38;9.93;;;;;;;;;;5035945;28;20041;-74
2022/05/17 03:53:16;;;;;;;23.10;11.32;;;;;;;;;;5017957;28;20049;-74
2022/05/17 03:55:42;;;;;;;19.42;9.90;;;;;;;;;;5035772;28;20056;-75
2022/05/17 03:58:08;;;;;;;20.05;10.52;;;;;;;;;;5035567;28;20049;-73
2022/05/17 04:00:35;;;;;;;19.48;9.70;;;;;;;;;;5018546;28;20049;-74
2022/05/17 04:03:01;;;;;;;21.35;10.10;;;;;;;;;;5035876;28;20472;-73
2022/05/17 04:05:27;;;;;;;20.73;10.10;;;;;;;;;;5036049;28;20049;-74
2022/05/17 04:07:53;;;;;;;19.02;10.63;;;;;;;;;;5035118;28;20111;-75
2022/05/17 04:10:19;;;;;;;26.15;10.52;;;;;;;;;;5035943;28;20540;-74
2022/05/17 04:12:45;;;;;;;20.52;10.23;;;;;;;;;;5035582;28;20038;-74
2022/05/17 04:15:16;;;;;;;23.30;10.90;;;;;;;;;;5035400;28;20511;-74
2022/05/17 04:17:42;;;;;;;24.33;10.20;;;;;;;;;;5036057;28;20053;-74
2022/05/17 04:20:09;;;;;;;21.50;11.32;;;;;;;;;;5035999;28;20435;-74
2022/05/17 04:22:35;;;;;;;22.50;10.48;;;;;;;;;;5017705;28;20108;-73
2022/05/17 04:25:01;;;;;;;24.83;10.10;;;;;;;;;;5035943;28;20515;-75
2022/05/17 04:27:28;;;;;;;19.40;9.65;;;;;;;;;;5018459;28;20048;-74
2022/05/17 04:29:54;;;;;;;19.10;9.57;;;;;;;;;;5001803;28;20067;-74
2022/05/17 04:32:20;;;;;;;22.02;9.23;;;;;;;;;;5035931;28;20049;-73
2022/05/17 04:34:46;;;;;;;18.67;9.25;;;;;;;;;;5017485;28;20064;-73
2022/05/17 04:37:12;;;;;;;17.42;8.88;;;;;;;;;;5035741;28;20111;-74
2022/05/17 04:39:38;;;;;;;20.02;9.93;;;;;;;;;;5035141;28;20056;-74
2022/05/17 04:42:04;;;;;;;20.88;9.55;;;;;;;;;;5035138;28;20550;-74
2022/05/17 04:44:30;;;;;;;21.88;9.93;;;;;;;;;;5035378;28;20408;-74
2022/05/17 04:46:57;;;;;;;21.23;9.52;;;;;;;;;;5035484;28;20037;-75
2022/05/17 04:49:23;;;;;;;20.65;9.45;;;;;;;;;;5034625;28;20727;-74
2022/05/17 04:51:52;;;;;;;18.13;9.40;;;;;;;;;;5017937;28;20080;-74
2022/05/17 04:54:19;;;;;;;21.00;8.80;;;;;;;;;;5036102;28;20061;-72
2022/05/17 04:56:45;;;;;;;21.90;10.00;;;;;;;;;;5035648;28;20069;-74
2022/05/17 04:59:11;;;;;;;17.52;9.70;;;;;;;;;;5035395;28;20446;-73
2022/05/17 05:01:38;;;;;;;18.02;9.35;;;;;;;;;;5035153;28;20056;-74
2022/05/17 05:04:05;;;;;;;23.45;9.05;;;;;;;;;;5035540;28;20059;-74
2022/05/17 05:06:31;;;;;;;20.90;9.88;;;;;;;;;;5035188;28;20124;-74
2022/05/17 05:08:57;;;;;;;19.23;8.73;;;;;;;;;;5036164;28;20121;-74
2022/05/17 05:11:23;;;;;;;20.52;9.45;;;;;;;;;;5034952;28;20095;-74
2022/05/17 05:13:49;;;;;;;18.73;9.10;;;;;;;;;;5035633;28;20045;-74
2022/05/17 05:16:15;;;;;;;17.33;8.82;;;;;;;;;;5035407;28;20045;-75
2022/05/17 05:18:41;;;;;;;19.88;8.68;;;;;;;;;;5034677;28;20053;-74
2022/05/17 05:21:09;;;;;;;17.98;8.35;;;;;;;;;;5033964;28;20111;-75
2022/05/17 05:23:35;;;;;;;20.23;8.63;;;;;;;;;;5034622;28;20048;-75
2022/05/17 05:26:02;;;;;;;16.20;8.52;;;;;;;;;;5034300;28;20045;-73
2022/05/17 05:28:28;;;;;;;17.05;8.30;;;;;;;;;;5034577;28;20457;-74
2022/05/17 05:30:55;;;;;;;19.42;8.38;;;;;;;;;;5034327;28;20045;-73
2022/05/17 05:33:21;;;;;;;18.50;8.52;;;;;;;;;;5033902;28;20046;-74
2022/05/17 05:35:47;;;;;;;15.85;7.78;;;;;;;;;;5034068;28;20084;-74
2022/05/17 05:38:13;;;;;;;16.00;7.35;;;;;;;;;;5016663;28;20513;-74
2022/05/17 05:40:40;;;;;;;15.05;7.15;;;;;;;;;;5033619;28;20152;-74
2022/05/17 05:43:06;;;;;;;15.18;7.32;;;;;;;;;;5033964;28;20377;-75
2022/05/17 05:45:32;;;;;;;18.63;7.80;;;;;;;;;;5034335;28;20038;-75
2022/05/17 05:47:59;;;;;;;14.10;7.53;;;;;;;;;;5016001;28;20044;-73
2022/05/17 05:50:25;;;;;;;15.30;7.03;;;;;;;;;;5034099;28;20049;-74
2022/05/17 05:52:51;;;;;;;14.73;7.35;;;;;;;;;;5034318;28;20049;-75
2022/05/17 05:55:22;;;;;;;15.25;7.10;;;;;;;;;;5034436;28;20042;-74
2022/05/17 05:57:48;;;;;;;17.10;6.68;;;;;;;;;;5016412;28;20075;-75
2022/05/17 06:00:15;;;;;;;15.13;6.57;;;;;;;;;;5034583;28;20041;-74
2022/05/17 06:02:41;;;;;;;16.13;6.10;;;;;;;;;;5033841;28;20445;-75
2022/05/17 06:05:08;;;;;;;13.25;5.90;;;;;;;;;;5033456;28;20403;-75
2022/05/17 06:07:35;;;;;;;15.07;6.15;;;;;;;;;;5033010;28;20045;-76
2022/05/17 06:10:01;;;;;;;16.38;5.78;;;;;;;;;;5033369;28;20125;-75
2022/05/17 06:12:27;;;;;;;12.90;5.30;;;;;;;;;;5033914;28;20045;-74
2022/05/17 06:14:54;;;;;;;13.43;5.72;;;;;;;;;;5033748;28;20053;-77
2022/05/17 06:17:24;;;;;;;12.70;5.55;;;;;;;;;;5033299;28;20045;-76
2022/05/17 06:19:50;;;;;;;13.93;5.70;;;;;;;;;;5033891;28;20045;-75
2022/05/17 06:22:16;;;;;;;13.20;5.13;;;;;;;;;;5033568;28;20126;-74
2022/05/17 06:24:43;;;;;;;13.50;5.15;;;;;;;;;;5033442;28;20057;-74
2022/05/17 06:27:09;;;;;;;14.68;5.80;;;;;;;;;;4999418;28;20050;-75
2022/05/17 06:29:35;;;;;;;13.48;5.60;;;;;;;;;;5033985;28;20037;-75
2022/05/17 06:32:01;;;;;;;14.88;5.32;;;;;;;;;;5016039;28;20048;-75
2022/05/17 06:34:28;;;;;;;17.52;5.72;;;;;;;;;;5033215;28;20403;-73
2022/05/17 06:36:54;;;;;;;11.48;5.00;;;;;;;;;;5015830;28;20535;-75
2022/05/17 06:39:20;;;;;;;11.40;5.15;;;;;;;;;;5032904;28;20434;-75
2022/05/17 06:41:47;;;;;;;12.70;4.97;;;;;;;;;;5033371;28;20053;-74
2022/05/17 06:44:13;;;;;;;14.07;5.30;;;;;;;;;;5033023;28;20049;-74
2022/05/17 06:46:39;;;;;;;14.77;5.40;;;;;;;;;;5032872;28;20053;-73
2022/05/17 06:49:05;;;;;;;12.45;5.35;;;;;;;;;;5033239;28;20091;-75
2022/05/17 06:51:35;;;;;;;14.60;5.47;;;;;;;;;;4999003;28;20048;-74
2022/05/17 06:54:01;;;;;;;12.00;4.55;;;;;;;;;;5015088;28;20050;-74
2022/05/17 06:56:27;;;;;;;16.77;5.45;;;;;;;;;;5015744;28;20037;-74
2022/05/17 06:58:53;;;;;;;12.35;5.10;;;;;;;;;;5034608;28;20045;-74
2022/05/17 07:01:19;;;;;;;10.75;5.32;;;;;;;;;;5036568;28;20042;-74
2022/05/17 07:03:45;;;;;;;11.38;4.45;;;;;;;;;;5036856;28;20049;-74
2022/05/17 07:06:11;;;;;;;13.38;5.53;;;;;;;;;;5018554;28;20045;-75
2022/05/17 07:08:37;;;;;;;12.85;4.75;;;;;;;;;;5037344;28;20080;-74
2022/05/17 07:13:48;;;;;;;12.60;4.72;;;;;;;;;;5036844;28;20057;-74
2022/05/17 07:16:14;;;;;;;14.93;4.80;;;;;;;;;;5019325;28;20060;-74
2022/05/17 07:18:42;;;;;;;12.63;5.03;;;;;;;;;;5036362;28;20041;-75
2022/05/17 07:21:08;;;;;;;12.82;4.88;;;;;;;;;;5037253;28;20125;-74
2022/05/17 07:23:34;;;;;;;12.32;4.53;;;;;;;;;;5036885;28;20116;-75
2022/05/17 07:26:00;;;;;;;13.38;5.28;;;;;;;;;;5036609;28;20042;-74
2022/05/17 07:28:26;;;;;;;14.13;4.97;;;;;;;;;;5036399;28;20427;-74
2022/05/17 07:30:53;;;;;;;10.23;4.63;;;;;;;;;;5036017;28;20060;-74
2022/05/17 07:33:20;;;;;;;12.30;4.80;;;;;;;;;;5035425;28;20514;-74
2022/05/17 07:35:46;;;;;;;13.48;4.60;;;;;;;;;;5035685;28;20124;-73
2022/05/17 07:38:12;;;;;;;11.60;4.32;;;;;;;;;;5036431;28;20092;-73
2022/05/17 07:40:39;;;;;;;12.80;5.10;;;;;;;;;;5036298;28;20147;-75
2022/05/17 07:43:05;;;;;;;15.30;4.82;;;;;;;;;;5036067;28;20080;-74
2022/05/17 07:45:31;;;;;;;10.38;4.63;;;;;;;;;;5036089;28;20503;-74
2022/05/17 07:47:57;;;;;;;13.50;4.47;;;;;;;;;;5036229;28;20058;-75
2022/05/17 07:50:23;;;;;;;14.73;4.60;;;;;;;;;;5018128;28;20053;-74
2022/05/17 07:52:49;;;;;;;12.25;3.67;;;;;;;;;;5035769;28;20439;-75
2022/05/17 07:55:15;;;;;;;10.35;4.32;;;;;;;;;;5036159;28;20041;-74
2022/05/17 07:57:41;;;;;;;13.45;5.00;;;;;;;;;;5035787;28;20124;-75
2022/05/17 08:00:08;;;;;;;15.02;5.13;;;;;;;;;;5018891;28;20042;-74
2022/05/17 08:02:34;;;;;;;13.35;4.90;;;;;;;;;;5035905;28;20059;-75
2022/05/17 08:05:00;;;;;;;13.68;4.70;;;;;;;;;;5035610;28;20088;-74
2022/05/17 08:07:26;;;;;;;14.07;5.70;;;;;;;;;;5035438;28;20057;-74
2022/05/17 08:09:53;;;;;;;12.30;4.78;;;;;;;;;;5018452;28;20060;-73
2022/05/17 08:12:19;;;;;;;15.35;4.97;;;;;;;;;;5035393;28;20048;-75
2022/05/17 08:14:45;;;;;;;12.95;4.60;;;;;;;;;;5035117;28;20128;-74
2022/05/17 08:17:11;;;;;;;15.13;4.68;;;;;;;;;;5034915;28;20156;-75
2022/05/17 08:19:38;;;;;;;14.02;4.93;;;;;;;;;;5035244;28;20069;-75
2022/05/17 08:22:05;;;;;;;13.80;4.80;;;;;;;;;;5017965;28;20049;-73
2022/05/17 08:27:31;;;;;;;14.73;4.95;;;;;;;;;;5035173;28;20121;-74
2022/05/17 08:27:36;;;;;;;12.50;4.70;;;;;;;;;;5034959;28;20057;-73
2022/05/17 08:30:04;;;;;;;13.20;5.30;;;;;;;;;;5034908;28;20053;-74
2022/05/17 08:35:16;;;;;;;13.02;4.57;;;;;;;;;;5034919;28;20045;-74
2022/05/17 08:37:42;;;;;;;11.65;4.88;;;;;;;;;;5035151;28;20049;-73
2022/05/17 08:40:08;;;;;;;12.65;4.00;;;;;;;;;;5035601;28;20046;-74
2022/05/17 08:42:47;;;;;;;11.95;4.38;;;;;;;;;;5035059;28;20049;-73
2022/05/17 08:45:17;;;;;;;11.38;4.10;;;;;;;;;;5034772;28;20049;-74
2022/05/17 08:47:46;;;;;;;10.73;4.72;;;;;;;;;;5035088;28;20088;-74
2022/05/17 08:50:15;;;;;;;13.10;4.63;;;;;;;;;;5035103;28;20049;-74
2022/05/17 08:52:42;;;;;;;12.13;3.20;;;;;;;;;;5034357;28;20399;-73
2022/05/17 08:55:26;;;;;;;12.38;3.55;;;;;;;;;;5034926;28;20053;-74
2022/05/17 08:57:55;;;;;;;11.00;3.88;;;;;;;;;;5035023;28;20500;-73
2022/05/17 09:00:23;;;;;;;10.90;2.70;;;;;;;;;;5035376;28;20072;-74
2022/05/17 09:02:52;;;;;;;12.82;3.17;;;;;;;;;;5035346;28;20084;-74
2022/05/17 09:05:21;;;;;;;12.20;3.30;;;;;;;;;;5035403;28;20409;-74
2022/05/17 09:07:51;;;;;;;12.50;2.95;;;;;;;;;;5034734;28;20057;-73
2022/05/17 09:10:28;;;;;;;12.40;3.55;;;;;;;;;;5035142;28;20053;-73
2022/05/17 09:13:13;;;;;;;10.38;3.28;;;;;;;;;;5034636;28;20551;-74
2022/05/17 09:15:39;;;;;;;9.60;2.78;;;;;;;;;;5034433;28;20057;-74
2022/05/17 09:18:09;;;;;;;10.82;2.80;;;;;;;;;;5034216;28;20502;-73
2022/05/17 09:20:36;;;;;;;9.95;2.67;;;;;;;;;;5034646;28;20081;-74
2022/05/17 09:23:02;;;;;;;7.43;2.10;;;;;;;;;;5033732;28;20103;-75
2022/05/17 09:25:45;;;;;;;10.20;2.42;;;;;;;;;;5016294;28;20060;-74
2022/05/17 09:28:12;;;;;;;8.20;2.35;;;;;;;;;;5034346;28;20042;-74
2022/05/17 09:30:39;;;;;;;11.02;2.35;;;;;;;;;;5034688;28;20045;-72
2022/05/17 09:33:05;;;;;;;9.68;2.15;;;;;;;;;;5034673;28;20045;-74
2022/05/17 09:35:32;;;;;;;9.52;2.35;;;;;;;;;;5034320;28;20045;-74
2022/05/17 09:37:59;;;;;;;7.95;2.50;;;;;;;;;;5034099;28;20064;-73
2022/05/17 09:40:30;;;;;;;8.02;2.40;;;;;;;;;;5033999;28;20059;-73
2022/05/17 09:43:01;;;;;;;9.45;2.25;;;;;;;;;;5034459;28;20080;-73
2022/05/17 09:45:55;;;;;;;11.90;2.45;;;;;;;;;;5034466;28;20053;-73
2022/05/17 09:54:32;;;;;;;8.30;2.30;;;;;;;;;;4918348;29;20580;-73
2022/05/17 09:57:12;;;;;;;9.43;2.90;;;;;;;;;;4934145;29;20534;-72
2022/05/17 09:59:38;;;;;;;10.68;2.75;;;;;;;;;;4934155;29;20054;-74
2022/05/17 10:02:05;;;;;;;8.82;2.45;;;;;;;;;;4934293;29;20052;-73
2022/05/17 10:04:31;;;;;;;10.88;2.30;;;;;;;;;;4918006;29;20103;-73
2022/05/17 10:06:58;;;;;;;8.73;2.33;;;;;;;;;;4933921;29;20063;-74
2022/05/17 10:09:29;;;;;;;9.02;2.30;;;;;;;;;;4934177;29;20414;-74
2022/05/17 10:11:58;;;;;;;6.97;2.08;;;;;;;;;;4902807;29;20086;-73
2022/05/17 10:14:40;;;;;;;10.80;2.38;;;;;;;;;;4934172;29;20051;-74
2022/05/17 10:17:09;;;;;;;10.93;2.40;;;;;;;;;;4934401;29;20052;-73
2022/05/17 10:19:41;;;;;;;11.60;2.10;;;;;;;;;;4933597;29;20091;-73
2022/05/17 10:22:20;;;;;;;8.55;2.08;;;;;;;;;;4933957;29;20043;-74
2022/05/17 10:24:51;;;;;;;10.10;2.20;;;;;;;;;;4918698;29;20407;-74
2022/05/17 10:27:19;;;;;;;7.93;2.00;;;;;;;;;;4934367;29;20521;-74
2022/05/17 10:29:49;;;;;;;7.47;1.60;;;;;;;;;;4942642;28;20175;-74
2022/05/17 10:32:20;;;;;;;9.43;2.40;;;;;;;;;;5033612;28;20050;-73
2022/05/17 10:35:00;;;;;;;7.00;1.60;;;;;;;;;;5037321;28;20100;-74
2022/05/17 10:37:29;;;;;;;7.57;1.90;;;;;;;;;;5020566;28;20049;-74
2022/05/17 10:39:57;;;;;;;8.13;1.70;;;;;;;;;;5038047;28;20112;-74
2022/05/17 10:42:24;;;;;;;6.53;1.42;;;;;;;;;;5038268;28;20507;-74
2022/05/17 10:44:53;;;;;;;8.20;1.75;;;;;;;;;;5038743;28;20053;-74
2022/05/17 10:47:28;;;;;;;8.02;1.70;;;;;;;;;;5038106;28;20116;-74
2022/05/17 10:50:13;;;;;;;8.23;1.85;;;;;;;;;;5020863;28;20052;-74
2022/05/17 10:52:58;;;;;;;7.05;1.63;;;;;;;;;;5037057;28;20392;-74
2022/05/17 10:55:33;;;;;;;8.02;1.85;;;;;;;;;;5036842;28;20053;-74
2022/05/17 10:58:10;;;;;;;6.88;1.58;;;;;;;;;;5037156;28;20077;-75
2022/05/17 11:00:40;;;;;;;8.43;1.88;;;;;;;;;;5019654;28;20059;-74
2022/05/17 11:03:24;;;;;;;8.95;1.75;;;;;;;;;;5036992;28;20088;-74
2022/05/17 11:06:03;;;;;;;8.65;1.90;;;;;;;;;;5036824;28;20092;-74
2022/05/17 11:08:32;;;;;;;6.80;1.45;;;;;;;;;;5036888;28;20140;-73
2022/05/17 11:11:03;;;;;;;7.60;1.80;;;;;;;;;;5036907;28;20054;-73
2022/05/17 11:13:56;;;;;;;8.68;1.90;;;;;;;;;;5036973;28;20037;-74
2022/05/17 11:16:36;;;;;;;8.68;2.00;;;;;;;;;;5035072;28;20049;-73
2022/05/17 11:19:03;;;;;;;9.05;1.90;;;;;;;;;;5019667;28;20107;-74
2022/05/17 11:21:38;;;;;;;9.48;1.75;;;;;;;;;;5019442;28;20064;-76
2022/05/17 11:24:19;;;;;;;9.05;1.40;;;;;;;;;;5036493;28;20034;-74
2022/05/17 11:26:53;;;;;;;6.50;1.60;;;;;;;;;;5037077;28;20506;-73
2022/05/17 11:29:31;;;;;;;6.95;1.60;;;;;;;;;;5036463;28;20049;-74
2022/05/17 11:32:01;;;;;;;10.77;1.75;;;;;;;;;;5036629;28;20050;-74
2022/05/17 11:34:35;;;;;;;8.32;1.58;;;;;;;;;;5036193;28;20045;-73
2022/05/17 11:37:03;;;;;;;8.40;2.00;;;;;;;;;;5036293;28;20049;-73
2022/05/17 11:39:29;;;;;;;11.55;2.00;;;;;;;;;;5019008;28;20057;-74
2022/05/17 11:42:05;;;;;;;7.55;1.65;;;;;;;;;;5036553;28;20045;-72
2022/05/17 11:44:40;;;;;;;9.20;1.60;;;;;;;;;;5035327;28;20049;-74
2022/05/17 11:47:25;;;;;;;7.60;1.83;;;;;;;;;;5036347;28;20057;-74
2022/05/17 11:49:52;;;;;;;11.38;2.03;;;;;;;;;;5035991;28;20099;-76
2022/05/17 11:52:23;;;;;;;8.95;1.80;;;;;;;;;;5035834;28;20049;-73
2022/05/17 11:54:50;;;;;;;9.57;2.10;;;;;;;;;;5036191;28;20099;-74
2022/05/17 11:57:16;;;;;;;7.57;2.00;;;;;;;;;;5036990;28;20080;-74
2022/05/17 11:59:53;;;;;;;7.70;1.85;;;;;;;;;;5036857;28;20041;-74
2022/05/17 12:02:19;;;;;;;8.32;1.80;;;;;;;;;;5035898;28;20048;-75
2022/05/17 12:04:46;;;;;;;7.82;1.77;;;;;;;;;;5035860;28;20056;-74
2022/05/17 12:07:18;;;;;;;8.02;1.77;;;;;;;;;;5036005;28;20057;-76
2022/05/17 12:09:48;;;;;;;7.38;1.67;;;;;;;;;;5035749;28;20045;-75
2022/05/17 12:12:33;;;;;;;7.45;1.85;;;;;;;;;;5035827;28;20088;-74
2022/05/17 12:15:06;;;;;;;10.68;2.33;;;;;;;;;;5035871;28;20064;-74
2022/05/17 12:17:44;;;;;;;8.90;2.50;;;;;;;;;;5018044;28;20084;-73
2022/05/17 12:20:43;;;;;;;10.35;3.35;;;;;;;;;;5035304;28;20045;-74
2022/05/17 12:23:14;;;;;;;11.73;3.50;;;;;;;;;;5012714;28;20049;-76
2022/05/17 12:25:40;;;;;;;;;;;;;;;;;;5036014;28;20116;-74
2022/05/17 12:28:10;;;;;;;15.32;3.38;;;;;;;;;;5035273;28;19975;-74
2022/05/17 12:30:54;;;;;;;12.07;3.20;;;;;;;;;;5036050;28;20072;-74
2022/05/17 12:33:20;;;;;;;10.55;2.90;;;;;;;;;;5035609;28;20057;-74
2022/05/17 12:35:46;;;;;;;11.27;3.17;;;;;;;;;;5036521;28;20115;-74
2022/05/17 12:43:55;;;;;;;8.80;2.40;;;;;;;;;;5034779;28;20111;-74
2022/05/17 12:46:24;;;;;;;13.05;2.88;;;;;;;;;;5034903;28;20077;-74
2022/05/17 12:48:51;;;;;;;12.48;2.80;;;;;;;;;;5034731;28;20053;-73
2022/05/17 12:51:19;;;;;;;10.98;2.70;;;;;;;;;;5035286;28;20038;-75
2022/05/17 12:53:46;;;;;;;11.75;2.90;;;;;;;;;;5016048;28;20048;-74
2022/05/17 12:56:32;;;;;;;10.82;2.88;;;;;;;;;;5017178;28;20080;-74
2022/05/17 12:58:59;;;;;;;11.60;3.00;;;;;;;;;;5034689;28;20484;-73
2022/05/17 13:01:31;;;;;;;11.70;3.22;;;;;;;;;;5034953;28;20046;-73
2022/05/17 13:03:59;;;;;;;11.60;3.17;;;;;;;;;;5016794;28;20446;-73
2022/05/17 13:06:35;;;;;;;14.45;3.30;;;;;;;;;;5034617;28;20065;-74
2022/05/17 13:09:01;;;;;;;13.82;3.17;;;;;;;;;;5034310;28;20056;-74
2022/05/17 13:11:27;;;;;;;11.50;2.67;;;;;;;;;;5034252;28;20049;-74
2022/05/17 13:13:58;;;;;;;10.43;2.80;;;;;;;;;;5034865;28;20037;-73
2022/05/17 13:16:25;;;;;;;;;;;;;;;;;;5017915;28;20056;-74
2022/05/17 13:18:52;;;;;;;11.02;3.33;;;;;;;;;;5034883;28;19920;-74
2022/05/17 13:21:22;;;;;;;10.65;2.80;;;;;;;;;;5016657;28;20396;-75
2022/05/17 13:23:49;;;;;;;11.57;3.00;;;;;;;;;;5034512;28;20045;-74
2022/05/17 13:26:20;;;;;;;9.63;3.08;;;;;;;;;;5035519;28;20052;-74
2022/05/17 13:28:46;;;;;;;9.60;2.72;;;;;;;;;;5017182;28;20053;-74
2022/05/17 13:31:19;;;;;;;8.27;2.30;;;;;;;;;;5034399;28;20075;-74
2022/05/17 13:33:54;;;;;;;10.00;3.03;;;;;;;;;;5034262;28;20081;-74
2022/05/17 13:36:40;;;;;;;10.43;3.00;;;;;;;;;;5034913;28;20053;-74
2022/05/17 13:39:18;;;;;;;10.68;3.05;;;;;;;;;;5033992;28;20053;-73
2022/05/17 13:41:44;;;;;;;9.35;2.70;;;;;;;;;;5034150;28;20095;-74
2022/05/17 13:44:24;;;;;;;10.93;3.00;;;;;;;;;;5034176;28;20045;-74
2022/05/17 13:46:50;;;;;;;10.85;2.47;;;;;;;;;;5033966;28;20404;-74
2022/05/17 13:49:23;;;;;;;13.10;3.00;;;;;;;;;;5033932;28;20045;-74
2022/05/17 13:51:51;;;;;;;10.55;2.80;;;;;;;;;;5034055;28;20442;-74
2022/05/17 13:54:28;;;;;;;9.98;2.47;;;;;;;;;;5034227;28;20427;-73
2022/05/17 13:56:56;;;;;;;12.15;2.78;;;;;;;;;;5033455;28;20041;-74
2022/05/17 13:59:22;;;;;;;11.52;2.97;;;;;;;;;;5033940;28;20033;-74
2022/05/17 14:01:54;;;;;;;10.75;2.70;;;;;;;;;;5034302;28;20053;-74
2022/05/17 14:04:23;;;;;;;13.38;3.90;;;;;;;;;;5033986;28;20126;-74
2022/05/17 14:06:52;;;;;;;14.30;4.00;;;;;;;;;;5033218;28;20061;-73
2022/05/17 14:12:11;;;;;;;10.93;3.28;;;;;;;;;;5038352;28;20084;-73
2022/05/17 14:14:37;;;;;;;12.48;3.00;;;;;;;;;;5032055;28;20171;-74
2022/05/17 14:17:06;;;;;;;11.18;3.08;;;;;;;;;;5019705;28;20057;-74
2022/05/17 14:19:33;;;;;;;9.90;2.80;;;;;;;;;;5017960;28;20041;-74
2022/05/17 14:22:01;;;;;;;9.93;3.00;;;;;;;;;;5042111;28;20045;-74
2022/05/17 14:24:27;;;;;;;9.30;2.63;;;;;;;;;;5035081;28;20053;-71
2022/05/17 14:26:54;;;;;;;10.57;2.67;;;;;;;;;;5018577;28;20436;-71
2022/05/17 14:29:21;;;;;;;7.85;2.63;;;;;;;;;;5035758;28;20045;-71
2022/05/17 14:31:48;;;;;;;8.25;2.25;;;;;;;;;;5029840;28;20041;-71
2022/05/17 14:34:16;;;;;;;11.63;2.55;;;;;;;;;;5017591;28;20050;-71
2022/05/17 14:36:43;;;;;;;12.65;2.45;;;;;;;;;;5028063;28;20046;-71
2022/05/17 14:39:09;;;;;;;9.90;2.97;;;;;;;;;;5034884;28;20423;-71
2022/05/17 14:41:36;;;;;;;8.23;2.50;;;;;;;;;;5034430;28;20487;-71
2022/05/17 14:44:02;;;;;;;10.65;2.70;;;;;;;;;;5016993;28;20052;-71
2022/05/17 14:46:29;;;;;;;9.00;2.60;;;;;;;;;;5030394;28;20041;-70
2022/05/17 14:48:55;;;;;;;9.38;2.47;;;;;;;;;;5035165;28;20479;-71
2022/05/17 14:51:23;;;;;;;11.27;2.90;;;;;;;;;;5034321;28;20080;-74
2022/05/17 14:53:49;;;;;;;10.20;3.20;;;;;;;;;;5030620;28;20099;-73
2022/05/17 14:56:15;;;;;;;12.38;2.78;;;;;;;;;;5033345;28;20552;-74
2022/05/17 14:58:41;;;;;;;11.32;2.95;;;;;;;;;;5017419;28;20041;-73
2022/05/17 15:01:08;;;;;;;10.88;2.90;;;;;;;;;;5036985;28;20041;-74